createdAt,value
2022-08-22T00:01:36.468Z,74.29
2022-08-22T00:02:58.379Z,61.64
2022-08-22T00:03:15.427Z,74.28
2022-08-22T00:04:09.138Z,74.38
2022-08-22T00:06:42.030Z,74.94
2022-08-22T00:09:48.839Z,73.81
2022-08-22T00:12:23.388Z,73.53
2022-08-22T00:15:07.621Z,73.39
2022-08-22T00:17:51.493Z,73.29
2022-08-22T00:20:28.343Z,72.74
2022-08-22T00:22:59.804Z,73.79
2022-08-22T00:25:42.572Z,71.87
2022-08-22T00:28:23.254Z,71.48
2022-08-22T00:31:21.078Z,72.52
2022-08-22T00:33:53.434Z,72.38
2022-08-22T00:36:25.096Z,72.03
2022-08-22T00:39:47.826Z,71.71
2022-08-22T00:42:31.708Z,72.60
2022-08-22T00:45:17.879Z,72.95
2022-08-22T00:48:09.190Z,73.37
2022-08-22T00:50:51.301Z,74.38
2022-08-22T00:53:39.613Z,73.53
2022-08-22T00:56:21.721Z,74.51
2022-08-22T00:58:57.552Z,73.48
2022-08-22T01:01:34.727Z,73.26
2022-08-22T01:04:33.223Z,74.02
2022-08-22T01:07:03.249Z,74.06
2022-08-22T01:09:45.284Z,73.54
2022-08-22T01:12:32.874Z,70.68
2022-08-22T01:15:09.611Z,72.83
2022-08-22T01:17:39.361Z,73.98
2022-08-22T01:21:03.284Z,74.76
2022-08-22T01:23:40.468Z,74.60
2022-08-22T01:26:44.928Z,73.63
2022-08-22T01:29:28.607Z,75.05
2022-08-22T01:32:01.645Z,74.36
2022-08-22T01:34:53.304Z,74.03
2022-08-22T01:37:26.079Z,73.77
2022-08-22T01:39:55.947Z,73.36
2022-08-22T01:42:41.839Z,73.71
2022-08-22T01:45:08.840Z,74.32
2022-08-22T01:47:40.649Z,74.86
2022-08-22T01:50:56.926Z,74.89
2022-08-22T01:53:25.246Z,74.38
2022-08-22T01:56:07.473Z,74.22
2022-08-22T01:58:36.672Z,74.59
2022-08-22T02:01:06.284Z,75.38
2022-08-22T02:03:43.142Z,74.63
2022-08-22T02:06:25.053Z,74.56
2022-08-22T02:09:27.310Z,73.90
2022-08-22T02:12:05.529Z,72.31
2022-08-22T02:14:51.385Z,75.53
2022-08-22T02:17:35.812Z,74.69
2022-08-22T02:20:20.393Z,73.20
2022-08-22T02:23:13.496Z,74.06
2022-08-22T02:25:51.480Z,74.68
2022-08-22T02:28:38.532Z,74.36
2022-08-22T02:31:21.968Z,74.97
2022-08-22T02:34:01.387Z,74.79
2022-08-22T02:36:45.564Z,74.24
2022-08-22T02:39:34.083Z,73.22
2022-08-22T02:42:27.894Z,75.47
2022-08-22T02:45:03.705Z,76.39
2022-08-22T02:47:41.226Z,77.05
2022-08-22T02:50:19.703Z,74.58
2022-08-22T02:52:52.835Z,75.31
2022-08-22T02:55:54.940Z,76.62
2022-08-22T02:58:31.118Z,76.15
2022-08-22T03:00:57.908Z,75.33
2022-08-22T03:03:31.807Z,75.08
2022-08-22T03:06:28.195Z,73.60
2022-08-22T03:09:07.219Z,74.48
2022-08-22T03:11:37.748Z,74.34
2022-08-22T03:14:16.737Z,74.40
2022-08-22T03:16:50.830Z,75.74
2022-08-22T03:19:20.458Z,75.36
2022-08-22T03:21:50.395Z,74.40
2022-08-22T03:24:24.779Z,74.42
2022-08-22T03:27:06.559Z,74.88
2022-08-22T03:29:37.086Z,74.22
2022-08-22T03:32:16.801Z,75.21
2022-08-22T03:34:55.951Z,74.72
2022-08-22T03:37:32.052Z,74.95
2022-08-22T03:40:35.292Z,73.80
2022-08-22T03:43:30.144Z,75.97
2022-08-22T03:46:18.795Z,76.66
2022-08-22T03:49:17.687Z,75.30
2022-08-22T03:51:53.648Z,76.44
2022-08-22T03:54:38.927Z,76.08
2022-08-22T03:57:29.809Z,75.96
2022-08-22T03:59:56.668Z,76.16
2022-08-22T04:02:50.115Z,76.44
2022-08-22T04:05:20.017Z,76.78
2022-08-22T04:08:00.211Z,78.17
2022-08-22T04:10:27.157Z,77.26
2022-08-22T04:12:53.904Z,75.96
2022-08-22T04:15:57.441Z,73.67
2022-08-22T04:18:28.459Z,74.71
2022-08-22T04:21:18.250Z,75.92
2022-08-22T04:24:09.724Z,72.36
2022-08-22T04:26:48.829Z,74.73
2022-08-22T04:29:22.571Z,74.61
2022-08-22T04:32:18.496Z,74.50
2022-08-22T04:34:56.287Z,74.58
2022-08-22T04:37:26.228Z,74.36
2022-08-22T04:40:00.583Z,73.29
2022-08-22T04:42:42.072Z,72.29
2022-08-22T04:45:23.181Z,72.82
2022-08-22T04:47:56.533Z,74.28
2022-08-22T04:50:31.263Z,75.51
2022-08-22T04:53:12.431Z,75.30
2022-08-22T04:55:55.907Z,74.64
2022-08-22T04:58:22.549Z,74.73
2022-08-22T05:00:52.399Z,75.36
2022-08-22T05:03:19.143Z,74.83
2022-08-22T05:05:45.915Z,75.27
2022-08-22T05:08:13.749Z,75.16
2022-08-22T05:10:41.630Z,75.79
2022-08-22T05:13:11.263Z,74.86
2022-08-22T05:15:39.144Z,75.15
2022-08-22T05:18:07.388Z,75.64
2022-08-22T05:20:34.097Z,75.92
2022-08-22T05:23:03.036Z,75.23
2022-08-22T05:25:34.705Z,75.52
2022-08-22T05:28:12.043Z,77.07
2022-08-22T05:30:38.986Z,75.29
2022-08-22T05:33:05.585Z,75.16
2022-08-22T05:35:49.255Z,75.86
2022-08-22T05:38:18.040Z,74.56
2022-08-22T05:40:44.841Z,74.84
2022-08-22T05:43:12.173Z,75.45
2022-08-22T05:45:39.217Z,74.59
2022-08-22T05:48:07.903Z,74.25
2022-08-22T05:50:37.026Z,74.10
2022-08-22T05:53:15.191Z,73.99
2022-08-22T05:55:41.944Z,73.92
2022-08-22T05:58:20.717Z,74.52
2022-08-22T06:00:49.793Z,75.88
2022-08-22T06:03:31.411Z,75.55
2022-08-22T06:05:58.916Z,73.04
2022-08-22T06:08:35.146Z,73.88
2022-08-22T06:11:17.385Z,73.01
2022-08-22T06:14:08.044Z,73.41
2022-08-22T06:16:37.560Z,72.85
2022-08-22T06:19:04.208Z,72.77
2022-08-22T06:21:47.076Z,72.38
2022-08-22T06:24:16.291Z,72.25
2022-08-22T06:26:48.227Z,72.27
2022-08-22T06:29:27.750Z,72.37
2022-08-22T06:31:54.586Z,73.01
2022-08-22T06:34:23.931Z,72.33
2022-08-22T06:36:50.959Z,71.94
2022-08-22T06:39:24.991Z,73.30
2022-08-22T06:42:04.986Z,72.21
2022-08-22T06:44:33.334Z,72.42
2022-08-22T06:47:01.059Z,71.79
2022-08-22T06:49:28.023Z,71.44
2022-08-22T06:51:57.640Z,70.89
2022-08-22T06:54:24.927Z,71.67
2022-08-22T06:56:52.033Z,70.86
2022-08-22T06:59:20.016Z,70.88
2022-08-22T07:02:07.133Z,69.95
2022-08-22T07:04:33.969Z,70.91
2022-08-22T07:07:00.860Z,71.33
2022-08-22T07:09:37.519Z,70.91
2022-08-22T07:12:08.783Z,71.13
2022-08-22T07:14:45.629Z,70.43
2022-08-22T07:17:17.376Z,70.77
2022-08-22T07:19:48.099Z,69.96
2022-08-22T07:22:26.081Z,70.23
2022-08-22T07:24:55.709Z,71.01
2022-08-22T07:27:31.884Z,71.01
2022-08-22T07:30:10.199Z,70.09
2022-08-22T07:32:57.885Z,67.51
2022-08-22T07:35:53.372Z,67.15
2022-08-22T07:38:42.860Z,68.27
2022-08-22T07:41:18.092Z,67.02
2022-08-22T07:43:45.935Z,66.31
2022-08-22T07:46:25.809Z,65.75
2022-08-22T07:49:09.224Z,66.50
2022-08-22T07:51:41.667Z,65.43
2022-08-22T07:54:09.549Z,65.27
2022-08-22T07:56:44.089Z,65.91
2022-08-22T07:59:14.376Z,65.19
2022-08-22T08:01:49.089Z,65.21
2022-08-22T08:04:17.789Z,64.74
2022-08-22T08:06:46.623Z,63.43
2022-08-22T08:09:15.059Z,63.30
2022-08-22T08:11:42.268Z,64.17
2022-08-22T08:14:09.095Z,63.55
2022-08-22T08:17:00.737Z,63.15
2022-08-22T08:19:27.488Z,63.97
2022-08-22T08:21:54.881Z,63.94
2022-08-22T08:24:43.342Z,62.93
2022-08-22T08:27:50.526Z,62.52
2022-08-22T08:30:19.431Z,63.08
2022-08-22T08:32:54.057Z,62.11
2022-08-22T08:35:42.389Z,62.19
2022-08-22T08:38:23.626Z,62.68
2022-08-22T08:40:56.408Z,62.29
2022-08-22T08:43:41.789Z,62.39
2022-08-22T08:46:11.457Z,61.81
2022-08-22T08:48:52.547Z,61.39
2022-08-22T08:51:25.290Z,60.04
2022-08-22T08:54:10.532Z,60.06
2022-08-22T08:56:37.198Z,59.90
2022-08-22T08:59:10.508Z,60.64
2022-08-22T09:01:46.271Z,60.53
2022-08-22T09:04:24.998Z,61.17
2022-08-22T09:07:03.871Z,61.08
2022-08-22T09:09:31.924Z,61.60
2022-08-22T09:12:01.681Z,61.21
2022-08-22T09:14:28.470Z,60.18
2022-08-22T09:16:58.146Z,59.84
2022-08-22T09:19:43.496Z,59.33
2022-08-22T09:22:30.049Z,58.01
2022-08-22T09:25:15.335Z,58.20
2022-08-22T09:27:42.715Z,57.80
2022-08-22T09:30:11.568Z,56.99
2022-08-22T09:32:44.114Z,56.87
2022-08-22T09:35:20.102Z,57.03
2022-08-22T09:38:07.590Z,57.04
2022-08-22T09:40:39.950Z,56.23
2022-08-22T09:43:21.453Z,55.85
2022-08-22T09:46:07.912Z,55.38
2022-08-22T09:48:39.612Z,55.84
2022-08-22T09:51:32.655Z,55.53
2022-08-22T09:54:31.371Z,56.20
2022-08-22T09:57:00.823Z,55.88
2022-08-22T09:59:35.132Z,55.83
2022-08-22T10:02:15.294Z,54.99
2022-08-22T10:04:45.952Z,54.36
2022-08-22T10:07:31.162Z,54.70
2022-08-22T10:10:01.319Z,54.35
2022-08-22T10:12:35.172Z,54.65
2022-08-22T10:15:16.208Z,54.54
2022-08-22T10:18:00.244Z,54.08
2022-08-22T10:21:02.620Z,55.00
2022-08-22T10:23:37.937Z,55.30
2022-08-22T10:26:38.623Z,55.67
2022-08-22T10:29:24.375Z,56.47
2022-08-22T10:31:58.719Z,57.50
2022-08-22T10:34:31.077Z,59.46
2022-08-22T10:37:03.985Z,59.79
2022-08-22T10:39:58.458Z,58.83
2022-08-22T10:42:27.985Z,59.39
2022-08-22T10:45:00.918Z,59.53
2022-08-22T10:47:30.973Z,59.64
2022-08-22T10:50:10.884Z,60.23
2022-08-22T10:52:46.115Z,60.29
2022-08-22T10:55:26.672Z,60.07
2022-08-22T10:57:53.650Z,59.34
2022-08-22T11:00:31.257Z,59.40
2022-08-22T11:03:04.823Z,59.18
2022-08-22T11:05:48.874Z,60.09
2022-08-22T11:08:35.956Z,60.08
2022-08-22T11:11:12.974Z,59.79
2022-08-22T11:13:42.319Z,59.92
2022-08-22T11:16:28.522Z,60.34
2022-08-22T11:19:02.576Z,59.76
2022-08-22T11:21:29.740Z,59.95
2022-08-22T11:24:02.410Z,59.76
2022-08-22T11:26:47.500Z,58.99
2022-08-22T11:29:14.894Z,60.96
2022-08-22T11:31:51.958Z,60.55
2022-08-22T11:34:38.275Z,60.82
2022-08-22T11:37:17.481Z,61.87
2022-08-22T11:39:47.168Z,61.90
2022-08-22T11:42:29.724Z,61.85
2022-08-22T11:44:57.539Z,62.68
2022-08-22T11:47:28.076Z,62.17
2022-08-22T11:50:13.403Z,62.12
2022-08-22T11:52:40.669Z,62.53
2022-08-22T11:55:12.807Z,62.44
2022-08-22T11:57:44.759Z,62.63
2022-08-22T12:00:15.160Z,62.36
2022-08-22T12:02:45.467Z,61.64
2022-08-22T12:05:19.538Z,61.04
2022-08-22T12:08:11.260Z,60.44
2022-08-22T12:10:43.645Z,59.58
2022-08-22T12:13:20.747Z,59.56
2022-08-22T12:16:01.801Z,58.82
2022-08-22T12:18:35.591Z,58.09
2022-08-22T12:21:14.522Z,57.29
2022-08-22T12:23:48.905Z,57.05
2022-08-22T12:26:28.628Z,57.94
2022-08-22T12:29:04.643Z,59.04
2022-08-22T12:32:01.020Z,58.45
2022-08-22T12:34:47.494Z,58.31
2022-08-22T12:37:26.233Z,57.71
2022-08-22T12:40:09.050Z,58.13
2022-08-22T12:42:39.167Z,57.60
2022-08-22T12:45:24.542Z,58.53
2022-08-22T12:47:55.688Z,58.98
2022-08-22T12:50:26.285Z,58.06
2022-08-22T12:52:52.959Z,57.56
2022-08-22T12:55:19.828Z,56.63
2022-08-22T12:57:57.167Z,57.85
2022-08-22T13:00:34.532Z,57.25
2022-08-22T13:03:09.630Z,57.70
2022-08-22T13:05:40.881Z,57.33
2022-08-22T13:08:10.017Z,57.96
2022-08-22T13:10:36.857Z,55.66
2022-08-22T13:13:11.927Z,57.77
2022-08-22T13:15:53.592Z,58.23
2022-08-22T13:18:29.740Z,56.99
2022-08-22T13:20:58.589Z,56.35
2022-08-22T13:23:30.456Z,56.85
2022-08-22T13:26:32.097Z,57.25
2022-08-22T13:29:24.552Z,56.81
2022-08-22T13:31:51.535Z,57.16
2022-08-22T13:34:30.810Z,56.41
2022-08-22T13:36:58.909Z,56.60
2022-08-22T13:39:28.814Z,55.99
2022-08-22T13:41:56.414Z,54.92
2022-08-22T13:44:29.283Z,55.00
2022-08-22T13:47:16.305Z,57.07
2022-08-22T13:49:44.752Z,58.70
2022-08-22T13:52:29.422Z,59.04
2022-08-22T13:55:01.614Z,59.82
2022-08-22T13:57:31.528Z,60.18
2022-08-22T14:00:28.552Z,60.56
2022-08-22T14:03:08.048Z,60.18
2022-08-22T14:05:37.148Z,59.17
2022-08-22T14:08:18.964Z,57.76
2022-08-22T14:10:55.063Z,56.97
2022-08-22T14:13:24.416Z,56.98
2022-08-22T14:16:15.043Z,58.82
2022-08-22T14:18:45.449Z,59.85
2022-08-22T14:21:33.462Z,60.77
2022-08-22T14:24:13.812Z,61.03
2022-08-22T14:26:47.363Z,60.60
2022-08-22T14:29:16.115Z,61.33
2022-08-22T14:31:43.214Z,61.06
2022-08-22T14:34:12.187Z,61.16
2022-08-22T14:36:55.227Z,61.49
2022-08-22T14:39:42.892Z,61.96
2022-08-22T14:42:22.779Z,62.63
2022-08-22T14:45:08.679Z,63.39
2022-08-22T14:48:29.286Z,63.38
2022-08-22T14:50:43.388Z,64.54
2022-08-22T14:53:11.960Z,64.71
2022-08-22T14:55:39.367Z,64.79
2022-08-22T14:58:08.931Z,65.26
2022-08-22T15:00:35.649Z,68.02
2022-08-22T15:03:09.441Z,71.02
2022-08-22T15:05:49.925Z,71.60
2022-08-22T15:08:21.126Z,74.09
2022-08-22T15:11:04.163Z,73.79
2022-08-22T15:13:31.323Z,73.60
2022-08-22T15:16:03.487Z,74.63
2022-08-22T15:18:35.811Z,74.42
2022-08-22T15:21:06.828Z,74.99
2022-08-22T15:23:44.989Z,76.34
2022-08-22T15:26:33.587Z,77.05
2022-08-22T15:29:07.745Z,76.13
2022-08-22T15:31:34.525Z,77.20
2022-08-22T15:34:08.782Z,77.03
2022-08-22T15:36:36.056Z,76.51
2022-08-22T15:39:21.766Z,76.53
2022-08-22T15:41:48.526Z,75.65
2022-08-22T15:44:32.967Z,75.31
2022-08-22T15:47:01.779Z,75.19
2022-08-22T15:49:29.269Z,75.65
2022-08-22T15:51:58.900Z,75.88
2022-08-22T15:54:26.696Z,75.16
2022-08-22T15:57:10.449Z,74.90
2022-08-22T15:59:54.306Z,75.12
2022-08-22T16:02:36.237Z,75.18
2022-08-22T16:05:09.552Z,74.91
2022-08-22T16:07:40.524Z,75.81
2022-08-22T16:10:08.894Z,75.99
2022-08-22T16:12:43.383Z,75.49
2022-08-22T16:15:28.789Z,76.60
2022-08-22T16:17:57.456Z,75.70
2022-08-22T16:20:24.469Z,76.13
2022-08-22T16:22:56.944Z,76.93
2022-08-22T16:25:42.327Z,76.78
2022-08-22T16:28:19.748Z,77.18
2022-08-22T16:30:52.352Z,77.74
2022-08-22T16:33:32.002Z,77.75
2022-08-22T16:36:15.299Z,77.13
2022-08-22T16:38:44.041Z,76.44
2022-08-22T16:41:45.716Z,77.05
2022-08-22T16:47:36.739Z,77.46
2022-08-22T16:50:06.567Z,77.67
2022-08-22T16:52:40.391Z,77.20
2022-08-22T16:55:27.011Z,77.85
2022-08-22T16:58:05.999Z,77.95
2022-08-22T17:00:36.498Z,78.20
2022-08-22T17:03:21.653Z,78.52
2022-08-22T17:05:55.197Z,78.52
2022-08-22T17:08:25.011Z,78.61
2022-08-22T17:10:57.668Z,78.53
2022-08-22T17:13:32.872Z,79.10
2022-08-22T17:16:18.646Z,78.25
2022-08-22T17:18:45.431Z,78.04
2022-08-22T17:21:15.487Z,78.64
2022-08-22T17:23:42.267Z,79.25
2022-08-22T17:26:27.920Z,79.09
2022-08-22T17:29:06.757Z,78.93
2022-08-22T17:31:43.235Z,79.32
2022-08-22T17:34:18.668Z,79.92
2022-08-22T17:36:55.192Z,80.28
2022-08-22T17:39:56.035Z,79.33
2022-08-22T17:42:41.502Z,79.50
2022-08-22T17:45:10.955Z,79.02
2022-08-22T17:47:43.416Z,79.26
2022-08-22T17:50:13.094Z,79.64
2022-08-22T17:53:02.335Z,79.39
2022-08-22T17:55:31.402Z,79.99
2022-08-22T17:58:01.261Z,80.16
2022-08-22T18:00:30.776Z,80.15
2022-08-22T18:03:20.788Z,80.20
2022-08-22T18:05:47.533Z,80.80
2022-08-22T18:11:21.116Z,80.86
2022-08-22T18:14:06.126Z,80.92
2022-08-22T18:16:35.021Z,81.20
2022-08-22T18:19:04.668Z,81.19
2022-08-22T18:21:33.658Z,81.43
2022-08-22T18:24:09.465Z,82.78
2022-08-22T18:26:36.181Z,83.11
2022-08-22T18:29:17.455Z,83.37
2022-08-22T18:31:50.240Z,84.02
2022-08-22T18:34:25.447Z,84.26
2022-08-22T18:36:59.599Z,84.96
2022-08-22T18:39:30.677Z,84.86
2022-08-22T18:42:00.611Z,85.01
2022-08-22T18:44:29.419Z,84.02
2022-08-22T18:46:56.774Z,84.56
2022-08-22T18:49:23.491Z,85.44
2022-08-22T18:52:12.821Z,85.67
2022-08-22T18:54:42.380Z,85.46
2022-08-22T18:57:24.354Z,85.11
2022-08-22T19:00:17.303Z,85.68
2022-08-22T19:02:55.693Z,85.56
2022-08-22T19:05:25.709Z,85.69
2022-08-22T19:07:56.430Z,86.10
2022-08-22T19:10:35.152Z,86.21
2022-08-22T19:13:10.447Z,86.44
2022-08-22T19:15:56.047Z,86.29
2022-08-22T19:18:26.086Z,86.31
2022-08-22T19:21:30.458Z,86.63
2022-08-22T19:23:57.194Z,86.52
2022-08-22T19:26:34.870Z,86.23
2022-08-22T19:29:08.794Z,85.87
2022-08-22T19:31:42.142Z,86.31
2022-08-22T19:34:18.894Z,86.78
2022-08-22T19:36:46.535Z,85.97
2022-08-22T19:39:31.949Z,86.64
2022-08-22T19:41:59.660Z,87.00
2022-08-22T19:44:26.275Z,86.98
2022-08-22T19:47:11.897Z,86.45
2022-08-22T19:49:39.708Z,87.06
2022-08-22T19:52:15.561Z,87.55
2022-08-22T19:54:57.406Z,86.72
2022-08-22T19:57:46.312Z,87.18
2022-08-22T20:00:14.668Z,87.36
2022-08-22T20:02:50.506Z,88.07
2022-08-22T20:05:28.851Z,87.69
2022-08-22T20:08:08.375Z,87.41
2022-08-22T20:10:53.517Z,87.95
2022-08-22T20:13:23.043Z,88.67
2022-08-22T20:16:01.848Z,88.55
2022-08-22T20:19:07.623Z,88.61
2022-08-22T20:21:54.873Z,88.57
2022-08-22T20:24:21.582Z,87.96
2022-08-22T20:27:12.071Z,88.08
2022-08-22T20:29:36.401Z,87.88
2022-08-22T20:32:04.188Z,88.28
2022-08-22T20:34:32.142Z,88.17
2022-08-22T20:37:16.113Z,88.56
2022-08-22T20:39:49.962Z,88.91
2022-08-22T20:42:25.576Z,88.87
2022-08-22T20:44:53.750Z,88.62
2022-08-22T20:47:24.589Z,88.79
2022-08-22T20:49:52.890Z,88.72
2022-08-22T20:52:19.499Z,88.56
2022-08-22T20:54:46.407Z,87.87
2022-08-22T20:57:16.237Z,88.03
2022-08-22T20:59:51.005Z,87.66
2022-08-22T21:02:22.249Z,88.49
2022-08-22T21:04:48.908Z,88.03
2022-08-22T21:07:41.585Z,88.22
2022-08-22T21:10:26.973Z,87.98
2022-08-22T21:13:14.783Z,87.94
2022-08-22T21:16:11.136Z,87.89
2022-08-22T21:18:39.013Z,87.67
2022-08-22T21:21:07.111Z,87.78
2022-08-22T21:23:40.946Z,88.42
2022-08-22T21:26:08.821Z,88.36
2022-08-22T21:28:37.285Z,87.95
2022-08-22T21:31:12.934Z,88.06
2022-08-22T21:33:41.264Z,87.85
2022-08-22T21:36:08.685Z,88.14
2022-08-22T21:38:35.394Z,88.68
2022-08-22T21:41:02.974Z,88.54
2022-08-22T21:43:31.510Z,88.36
2022-08-22T21:45:58.199Z,89.23
2022-08-22T21:48:43.895Z,88.99
2022-08-22T21:51:29.100Z,88.51
2022-08-22T21:54:18.393Z,88.84
2022-08-22T21:56:45.831Z,88.96
2022-08-22T21:59:21.017Z,89.04
2022-08-22T22:01:52.127Z,89.31
2022-08-22T22:04:18.754Z,89.13
2022-08-22T22:06:45.539Z,88.87
2022-08-22T22:09:15.156Z,88.26
2022-08-22T22:11:42.047Z,88.85
2022-08-22T22:14:08.928Z,89.30
2022-08-22T22:16:35.798Z,89.37
2022-08-22T22:19:02.486Z,89.24
2022-08-22T22:21:29.408Z,89.42
2022-08-22T22:23:58.429Z,88.88
2022-08-22T22:26:25.765Z,89.33
2022-08-22T22:28:53.036Z,89.17
2022-08-22T22:31:19.677Z,89.38
2022-08-22T22:33:46.351Z,89.36
2022-08-22T22:36:14.810Z,89.89
2022-08-22T22:38:41.766Z,89.90
2022-08-22T22:41:08.622Z,89.32
2022-08-22T22:43:35.260Z,89.74
2022-08-22T22:46:01.963Z,89.36
2022-08-22T22:48:29.258Z,89.11
2022-08-22T22:50:56.107Z,89.54
2022-08-22T22:53:37.987Z,89.32
2022-08-22T22:56:06.030Z,89.62
2022-08-22T22:58:35.447Z,90.03
2022-08-22T23:01:13.019Z,89.92
2022-08-22T23:03:39.881Z,90.41
2022-08-22T23:06:13.704Z,89.81
2022-08-22T23:08:40.484Z,89.93
2022-08-22T23:11:10.266Z,89.86
2022-08-22T23:13:37.318Z,90.12
2022-08-22T23:16:07.699Z,89.73
2022-08-22T23:18:34.517Z,90.36
2022-08-22T23:21:11.141Z,90.09
2022-08-22T23:23:37.804Z,90.45
2022-08-22T23:26:04.477Z,90.23
2022-08-22T23:28:31.253Z,90.69
2022-08-22T23:31:08.274Z,90.78
2022-08-22T23:33:35.364Z,91.02
2022-08-22T23:36:02.046Z,91.17
2022-08-22T23:38:28.704Z,91.40
2022-08-22T23:40:55.398Z,90.72
2022-08-22T23:43:22.195Z,90.76
2022-08-22T23:45:48.810Z,90.57
2022-08-22T23:48:15.495Z,90.59
2022-08-22T23:50:42.131Z,90.25
2022-08-22T23:53:08.857Z,90.95
2022-08-22T23:55:36.153Z,90.63
2022-08-22T23:58:02.874Z,91.04
